Time;durP1;ratioP1;P1;durP2;ratioP2;P2;SDS_P1;SDS_P2;PMS_P1;PMS_P2;Temp;Humidity;BMP_temperature;BMP_pressure;BME280_temperature;BME280_humidity;BME280_pressure;Samples;Min_cycle;Max_cycle;Signal;HPM_P1;HPM_P2
2021/10/14 00:01:09;;;;;;;0.00;0.00;;;;;;;;;;5045176;28;20025;-68
2021/10/14 00:03:35;;;;;;;0.22;0.22;;;;;;;;;;5047258;28;20277;-68
2021/10/14 00:06:01;;;;;;;0.00;0.00;;;;;;;;;;5043070;28;20036;-68
2021/10/14 00:08:27;;;;;;;0.52;0.52;;;;;;;;;;5041823;28;20030;-68
2021/10/14 00:10:53;;;;;;;0.00;0.00;;;;;;;;;;5042382;28;20115;-68
2021/10/14 00:13:19;;;;;;;0.50;0.50;;;;;;;;;;5048388;28;20547;-68
2021/10/14 00:15:45;;;;;;;3.03;1.17;;;;;;;;;;5041760;28;20121;-68
2021/10/14 00:18:11;;;;;;;0.20;0.20;;;;;;;;;;5045897;28;20321;-68
2021/10/14 00:20:37;;;;;;;0.17;0.17;;;;;;;;;;5043288;28;20365;-68
2021/10/14 00:23:03;;;;;;;0.25;0.25;;;;;;;;;;5057426;28;20514;-68
2021/10/14 00:25:29;;;;;;;0.00;0.00;;;;;;;;;;5065262;28;20314;-68
2021/10/14 00:27:55;;;;;;;1.20;1.10;;;;;;;;;;5060410;28;20065;-67
2021/10/14 00:30:21;;;;;;;0.10;0.10;;;;;;;;;;5058388;28;20128;-67
2021/10/14 00:32:47;;;;;;;0.68;0.68;;;;;;;;;;5065596;28;20046;-68
2021/10/14 00:35:12;;;;;;;0.47;0.47;;;;;;;;;;5058343;28;20029;-69
2021/10/14 00:37:38;;;;;;;0.52;0.52;;;;;;;;;;5066994;28;20027;-69
2021/10/14 00:40:05;;;;;;;0.10;0.10;;;;;;;;;;5063007;28;20059;-68
2021/10/14 00:42:31;;;;;;;0.00;0.00;;;;;;;;;;5063085;28;20079;-68
2021/10/14 00:44:58;;;;;;;0.30;0.30;;;;;;;;;;5057892;28;20051;-67
2021/10/14 00:47:28;;;;;;;0.10;0.10;;;;;;;;;;5053505;28;20469;-68
2021/10/14 00:49:54;;;;;;;3.60;0.45;;;;;;;;;;5060733;28;20029;-67
2021/10/14 00:52:20;;;;;;;0.10;0.10;;;;;;;;;;5062438;28;20024;-68
2021/10/14 00:54:47;;;;;;;1.27;0.60;;;;;;;;;;5061807;28;20036;-68
2021/10/14 00:57:13;;;;;;;0.98;0.30;;;;;;;;;;5065451;28;20025;-69
2021/10/14 00:59:39;;;;;;;0.28;0.28;;;;;;;;;;5069230;28;20056;-68
2021/10/14 01:02:05;;;;;;;0.20;0.20;;;;;;;;;;5069820;28;20411;-69
2021/10/14 01:04:31;;;;;;;1.77;1.38;;;11.50;83.90;;;;;;5062198;28;20256;-69
2021/10/14 01:06:56;;;;;;;0.00;0.00;;;11.10;99.90;;;;;;5059985;28;20031;-69
2021/10/14 01:09:32;;;;;;;0.28;0.28;;;11.10;99.90;;;;;;5068202;28;20392;-68
2021/10/14 01:12:03;;;;;;;0.05;0.05;;;11.10;99.90;;;;;;5059859;28;20017;-68
2021/10/14 01:14:29;;;;;;;0.07;0.07;;;11.10;99.90;;;;;;5065224;28;20028;-69
2021/10/14 01:16:54;;;;;;;0.03;0.03;;;11.10;99.90;;;;;;5065675;28;20052;-67
2021/10/14 01:19:20;;;;;;;2.60;1.95;;;11.00;99.90;;;;;;5064068;28;20020;-68
2021/10/14 01:21:48;;;;;;;0.22;0.17;;;11.00;99.90;;;;;;5066406;28;20053;-68
2021/10/14 01:24:13;;;;;;;0.32;0.32;;;11.10;99.90;;;;;;5055691;28;20036;-68
2021/10/14 01:26:40;;;;;;;0.00;0.00;;;11.00;99.90;;;;;;5059223;28;20763;-69
2021/10/14 01:29:05;;;;;;;0.93;0.88;;;11.00;99.90;;;;;;5066349;28;20035;-69
2021/10/14 01:31:31;;;;;;;1.98;0.52;;;11.00;99.90;;;;;;5057288;28;20119;-67
2021/10/14 01:33:56;;;;;;;0.20;0.20;;;11.00;99.90;;;;;;5064359;28;20034;-68
2021/10/14 01:36:23;;;;;;;0.03;0.03;;;11.00;99.90;;;;;;5063127;28;20553;-69
2021/10/14 01:38:49;;;;;;;0.50;0.50;;;11.10;99.90;;;;;;5063306;28;20063;-68
2021/10/14 01:41:14;;;;;;;0.13;0.13;;;11.00;99.90;;;;;;5053458;28;20059;-68
2021/10/14 01:43:41;;;;;;;0.00;0.00;;;11.00;99.90;;;;;;5065580;28;20471;-68
2021/10/14 01:46:06;;;;;;;1.20;1.10;;;11.00;99.90;;;;;;5058637;28;20036;-68
2021/10/14 01:48:32;;;;;;;0.10;0.10;;;11.00;99.90;;;;;;5065909;28;20052;-68
2021/10/14 01:50:59;;;;;;;0.45;0.35;;;11.00;99.90;;;;;;5067597;28;20033;-68
2021/10/14 01:53:25;;;;;;;0.10;0.10;;;11.00;99.90;;;;;;5057406;28;20028;-68
2021/10/14 01:55:50;;;;;;;44.63;1.38;;;11.10;99.90;;;;;;5057375;28;20510;-69
2021/10/14 01:58:17;;;;;;;0.40;0.40;;;11.10;99.90;;;;;;5063451;28;20031;-68
2021/10/14 02:00:42;;;;;;;0.40;0.40;;;11.00;99.90;;;;;;5066248;28;20028;-69
2021/10/14 02:03:08;;;;;;;0.63;0.63;;;11.00;99.90;;;;;;5066904;28;20024;-69
2021/10/14 02:05:33;;;;;;;0.00;0.00;;;11.00;99.90;;;;;;5055935;28;20384;-68
2021/10/14 02:08:00;;;;;;;2.38;0.60;;;11.00;99.90;;;;;;5062937;28;20500;-68
2021/10/14 02:10:25;;;;;;;0.15;0.15;;;11.00;99.90;;;;;;5067525;28;20028;-68
2021/10/14 02:12:52;;;;;;;0.35;0.35;;;11.00;99.90;;;;;;5065944;28;20051;-68
2021/10/14 02:15:17;;;;;;;0.32;0.32;;;11.00;99.90;;;;;;5063305;28;20083;-68
2021/10/14 02:17:43;;;;;;;0.80;0.80;;;11.10;99.90;;;;;;5057677;28;20028;-69
2021/10/14 02:20:09;;;;;;;2.05;0.63;;;11.00;99.90;;;;;;5060712;28;20025;-68
2021/10/14 02:22:34;;;;;;;0.20;0.20;;;11.00;99.90;;;;;;5061234;28;20270;-68
2021/10/14 02:25:00;;;;;;;1.48;1.05;;;11.00;99.90;;;;;;5064784;28;20048;-68
2021/10/14 02:27:25;;;;;;;0.35;0.35;;;11.00;99.90;;;;;;5063601;28;20035;-69
2021/10/14 02:29:51;;;;;;;0.20;0.20;;;11.00;99.90;;;;;;5066163;28;20028;-68
2021/10/14 02:32:17;;;;;;;0.30;0.30;;;11.00;99.90;;;;;;5066771;28;20029;-68
2021/10/14 02:34:43;;;;;;;0.03;0.03;;;11.00;99.90;;;;;;5068228;28;20031;-68
2021/10/14 02:37:08;;;;;;;0.30;0.30;;;11.00;99.90;;;;;;5057715;28;20021;-68
2021/10/14 02:39:34;;;;;;;0.43;0.43;;;11.00;99.90;;;;;;5068698;28;20149;-68
2021/10/14 02:41:59;;;;;;;3.42;0.98;;;11.10;99.90;;;;;;5070743;28;20028;-68
2021/10/14 02:44:27;;;;;;;0.20;0.20;;;11.00;99.90;;;;;;5066530;28;20024;-67
2021/10/14 02:46:53;;;;;;;0.50;0.20;;;11.00;99.90;;;;;;5061135;28;20025;-68
2021/10/14 02:49:19;;;;;;;0.35;0.35;;;11.00;99.90;;;;;;5065326;28;20035;-68
2021/10/14 02:51:45;;;;;;;0.03;0.03;;;11.00;99.90;;;;;;5066320;28;20078;-68
2021/10/14 02:54:11;;;;;;;0.57;0.47;;;11.00;99.90;;;;;;5065073;28;20024;-68
2021/10/14 02:56:37;;;;;;;0.17;0.17;;;11.00;99.90;;;;;;5060848;28;20173;-67
2021/10/14 02:59:02;;;;;;;0.08;0.08;;;11.00;99.90;;;;;;5060715;28;20053;-69
2021/10/14 03:01:27;;;;;;;0.25;0.10;;;11.00;99.90;;;;;;5063007;28;20123;-69
2021/10/14 03:03:53;;;;;;;0.22;0.17;;;10.90;99.90;;;;;;5066846;28;20375;-68
2021/10/14 03:06:19;;;;;;;3.65;0.63;;;10.90;99.90;;;;;;5060835;28;20031;-68
2021/10/14 03:08:44;;;;;;;0.15;0.15;;;10.90;99.90;;;;;;5067797;28;20669;-69
2021/10/14 03:11:10;;;;;;;0.40;0.40;;;10.90;99.90;;;;;;5068492;28;20032;-68
2021/10/14 03:13:35;;;;;;;0.00;0.00;;;10.90;99.90;;;;;;5067168;28;20023;-68
2021/10/14 03:16:04;;;;;;;0.00;0.00;;;10.90;99.90;;;;;;5063662;28;20504;-69
2021/10/14 03:18:30;;;;;;;0.00;0.00;;;10.90;99.90;;;;;;5069592;28;20028;-68
2021/10/14 03:20:55;;;;;;;4.75;1.55;;;10.90;99.90;;;;;;5063940;28;20049;-68
2021/10/14 03:23:21;;;;;;;0.30;0.30;;;10.90;99.90;;;;;;5053772;28;20124;-69
2021/10/14 03:25:46;;;;;;;0.43;0.43;;;10.80;99.90;;;;;;5059134;28;20549;-69
2021/10/14 03:28:12;;;;;;;0.32;0.32;;;10.90;99.90;;;;;;5059987;28;20052;-68
2021/10/14 03:30:38;;;;;;;0.00;0.00;;;10.90;99.90;;;;;;5060966;28;20518;-68
2021/10/14 03:33:03;;;;;;;0.20;0.20;;;10.80;99.90;;;;;;5066455;28;20024;-68
2021/10/14 03:35:28;;;;;;;0.08;0.08;;;10.80;99.90;;;;;;5066330;28;20104;-68
2021/10/14 03:37:55;;;;;;;0.40;0.40;;;10.80;99.90;;;;;;5059300;28;20032;-68
2021/10/14 03:40:20;;;;;;;0.00;0.00;;;10.90;99.90;;;;;;5056426;28;20029;-68
2021/10/14 03:42:45;;;;;;;0.10;0.10;;;10.90;99.90;;;;;;5068154;28;20050;-68
2021/10/14 03:45:14;;;;;;;0.00;0.00;;;10.90;99.90;;;;;;5059925;28;20021;-68
2021/10/14 03:47:39;;;;;;;0.00;0.00;;;10.80;99.90;;;;;;5059937;28;20037;-68
2021/10/14 03:50:05;;;;;;;0.15;0.15;;;10.80;99.90;;;;;;5064569;28;20142;-68
2021/10/14 03:52:31;;;;;;;0.00;0.00;;;10.80;99.90;;;;;;5064045;28;20029;-69
2021/10/14 03:54:56;;;;;;;0.25;0.25;;;10.80;99.90;;;;;;5060239;28;20020;-69
2021/10/14 03:57:21;;;;;;;0.10;0.10;;;10.80;99.90;;;;;;5066418;28;20024;-69
2021/10/14 03:59:47;;;;;;;0.10;0.10;;;10.80;99.90;;;;;;5067582;28;20020;-69
2021/10/14 04:02:12;;;;;;;0.80;0.20;;;10.80;99.90;;;;;;5065049;28;20501;-69
2021/10/14 04:04:38;;;;;;;0.00;0.00;;;10.90;99.90;;;;;;5062774;28;20115;-69
2021/10/14 04:07:03;;;;;;;0.00;0.00;;;10.90;99.90;;;;;;5059044;28;20025;-69
2021/10/14 04:09:29;;;;;;;6.72;0.90;;;10.90;99.90;;;;;;5060686;28;20032;-69
2021/10/14 04:11:54;;;;;;;0.10;0.10;;;10.90;99.90;;;;;;5064646;28;20020;-69
2021/10/14 04:14:20;;;;;;;0.03;0.03;;;10.90;99.90;;;;;;5059903;28;20083;-70
2021/10/14 04:16:45;;;;;;;1.00;0.20;;;10.90;99.90;;;;;;5063667;28;20074;-70
2021/10/14 04:19:11;;;;;;;0.00;0.00;;;10.90;99.90;;;;;;5063983;28;20384;-69
2021/10/14 04:21:38;;;;;;;0.00;0.00;;;10.90;99.90;;;;;;5032425;28;974184;-69
2021/10/14 04:24:03;;;;;;;0.30;0.30;;;10.90;99.90;;;;;;5060835;28;20035;-68
2021/10/14 04:26:29;;;;;;;1.00;0.38;;;10.90;99.90;;;;;;5074008;28;20746;-69
2021/10/14 04:28:54;;;;;;;0.35;0.35;;;10.90;99.90;;;;;;5070787;28;20028;-69
2021/10/14 04:31:20;;;;;;;0.30;0.30;;;10.90;99.90;;;;;;5072712;28;20017;-69
2021/10/14 04:33:45;;;;;;;0.00;0.00;;;10.80;99.90;;;;;;5064681;28;20479;-68
2021/10/14 04:36:11;;;;;;;0.15;0.15;;;10.90;99.90;;;;;;5074809;28;20025;-69
2021/10/14 04:38:36;;;;;;;1.55;0.60;;;10.90;99.90;;;;;;5067137;28;20071;-69
2021/10/14 04:41:02;;;;;;;0.00;0.00;;;10.80;99.90;;;;;;5068839;28;20798;-69
2021/10/14 04:43:27;;;;;;;0.00;0.00;;;10.80;99.90;;;;;;5069042;28;20065;-69
2021/10/14 04:45:53;;;;;;;0.15;0.15;;;10.80;99.90;;;;;;5068816;28;20024;-69
2021/10/14 04:48:19;;;;;;;0.00;0.00;;;10.80;99.90;;;;;;5065512;28;20028;-69
2021/10/14 04:50:44;;;;;;;0.17;0.17;;;10.80;99.90;;;;;;5067948;28;20103;-69
2021/10/14 04:53:10;;;;;;;0.10;0.10;;;10.80;99.90;;;;;;5069413;28;20058;-69
2021/10/14 04:55:35;;;;;;;0.00;0.00;;;10.80;99.90;;;;;;5067863;28;20435;-69
2021/10/14 04:58:01;;;;;;;0.00;0.00;;;10.80;99.90;;;;;;5067233;28;20043;-69
2021/10/14 05:00:26;;;;;;;0.20;0.20;;;10.80;99.90;;;;;;5065454;28;20048;-69
2021/10/14 05:02:52;;;;;;;0.00;0.00;;;10.90;99.90;;;;;;5068387;28;20062;-69
2021/10/14 05:05:17;;;;;;;0.00;0.00;;;10.90;99.90;;;;;;5069283;28;20537;-69
2021/10/14 05:07:43;;;;;;;0.00;0.00;;;10.90;99.90;;;;;;5063914;28;20029;-68
2021/10/14 05:10:08;;;;;;;0.00;0.00;;;10.90;99.90;;;;;;5054869;28;20020;-68
2021/10/14 05:12:35;;;;;;;0.00;0.00;;;10.90;99.90;;;;;;5068198;28;20161;-68
2021/10/14 05:15:07;;;;;;;0.17;0.17;;;10.90;99.90;;;;;;5068524;28;20107;-70
2021/10/14 05:17:33;;;;;;;0.35;0.35;;;10.90;99.90;;;;;;5058740;28;20495;-69
2021/10/14 05:19:59;;;;;;;0.25;0.25;;;10.90;99.90;;;;;;5062855;28;20074;-69
2021/10/14 05:22:25;;;;;;;0.28;0.20;;;10.90;99.90;;;;;;5063216;28;20051;-69
2021/10/14 05:24:50;;;;;;;0.17;0.17;;;10.90;99.90;;;;;;5058390;28;20032;-69
2021/10/14 05:27:16;;;;;;;0.00;0.00;;;10.90;99.90;;;;;;5059510;28;20067;-69
2021/10/14 05:29:41;;;;;;;0.22;0.10;;;10.90;99.90;;;;;;5067117;28;20028;-71
2021/10/14 05:32:07;;;;;;;0.15;0.15;;;10.90;99.90;;;;;;5065648;28;20024;-71
2021/10/14 05:34:32;;;;;;;0.15;0.15;;;10.90;99.90;;;;;;5059518;28;20028;-72
2021/10/14 05:36:58;;;;;;;0.10;0.10;;;10.90;99.90;;;;;;5064248;28;20060;-71
2021/10/14 05:39:23;;;;;;;0.00;0.00;;;11.00;99.90;;;;;;5061284;28;20059;-72
2021/10/14 05:41:49;;;;;;;0.00;0.00;;;11.00;99.90;;;;;;5065432;28;20509;-71
2021/10/14 05:44:14;;;;;;;0.00;0.00;;;11.00;99.90;;;;;;5058803;28;20024;-72
2021/10/14 05:46:40;;;;;;;0.30;0.22;;;11.00;99.90;;;;;;5065597;28;20123;-72
2021/10/14 05:49:06;;;;;;;0.10;0.10;;;11.00;99.90;;;;;;5058357;28;20027;-70
2021/10/14 05:51:31;;;;;;;0.15;0.15;;;11.00;99.90;;;;;;5057631;28;20024;-70
2021/10/14 05:53:57;;;;;;;0.30;0.30;;;11.00;99.90;;;;;;5058719;28;20028;-70
2021/10/14 05:56:24;;;;;;;0.43;0.22;;;11.00;99.90;;;;;;5056107;28;20305;-70
2021/10/14 05:58:50;;;;;;;0.00;0.00;;;11.00;99.90;;;;;;5063939;28;20032;-70
2021/10/14 06:01:16;;;;;;;0.20;0.20;;;11.00;99.90;;;;;;5062462;28;20024;-70
2021/10/14 06:03:42;;;;;;;0.10;0.10;;;11.00;99.90;;;;;;5059229;28;20029;-70
2021/10/14 06:06:07;;;;;;;0.10;0.10;;;11.00;99.90;;;;;;5055895;28;20484;-70
2021/10/14 06:08:32;;;;;;;3.03;0.40;;;11.00;99.90;;;;;;5062580;28;20040;-71
2021/10/14 06:10:58;;;;;;;0.00;0.00;;;11.00;99.90;;;;;;5061172;28;20461;-70
2021/10/14 06:13:23;;;;;;;0.10;0.10;;;11.10;99.90;;;;;;5065551;28;20029;-70
2021/10/14 06:15:49;;;;;;;0.08;0.08;;;11.10;99.90;;;;;;5064810;28;20033;-70
2021/10/14 06:18:14;;;;;;;0.10;0.10;;;11.10;99.90;;;;;;5058923;28;20032;-70
2021/10/14 06:20:40;;;;;;;0.05;0.05;;;11.10;99.90;;;;;;5052159;28;20025;-71
2021/10/14 06:23:06;;;;;;;0.25;0.25;;;11.20;99.90;;;;;;5048201;28;20049;-71
2021/10/14 06:25:33;;;;;;;1.75;0.63;;;11.20;99.90;;;;;;5061205;28;20033;-71
2021/10/14 06:27:58;;;;;;;0.20;0.20;;;11.20;99.90;;;;;;5064930;28;20031;-70
2021/10/14 06:30:24;;;;;;;0.20;0.20;;;11.20;99.90;;;;;;5062599;28;20025;-70
2021/10/14 06:32:49;;;;;;;0.00;0.00;;;11.20;99.90;;;;;;5059229;28;20024;-71
2021/10/14 06:35:15;;;;;;;0.57;0.57;;;11.20;99.90;;;;;;5061299;28;20025;-70
2021/10/14 06:37:40;;;;;;;3.50;1.08;;;11.30;99.90;;;;;;5062528;28;20115;-71
2021/10/14 06:40:07;;;;;;;0.00;0.00;;;11.30;99.90;;;;;;5058612;28;20253;-70
2021/10/14 06:42:32;;;;;;;12.43;1.95;;;11.30;99.90;;;;;;5064981;28;20036;-70
2021/10/14 06:44:58;;;;;;;0.00;0.00;;;11.30;99.90;;;;;;5056022;28;20029;-71
2021/10/14 06:47:23;;;;;;;0.47;0.32;;;11.40;99.90;;;;;;5058908;28;20052;-75
2021/10/14 06:49:49;;;;;;;1.33;0.47;;;11.40;99.90;;;;;;5058903;28;20029;-71
2021/10/14 06:52:16;;;;;;;0.25;0.25;;;11.40;99.90;;;;;;5059969;28;20128;-70
2021/10/14 06:54:41;;;;;;;0.10;0.10;;;11.40;99.90;;;;;;5064802;28;20024;-70
2021/10/14 06:57:07;;;;;;;0.00;0.00;;;11.50;99.90;;;;;;5060607;28;20029;-71
2021/10/14 06:59:33;;;;;;;0.32;0.30;;;11.40;99.90;;;;;;5054486;28;20037;-70
2021/10/14 07:01:58;;;;;;;0.00;0.00;;;11.50;99.90;;;;;;5056335;28;20705;-71
2021/10/14 07:04:24;;;;;;;0.00;0.00;;;11.40;99.90;;;;;;5061836;28;20085;-70
2021/10/14 07:06:50;;;;;;;0.00;0.00;;;11.50;99.90;;;;;;5050056;28;20060;-71
2021/10/14 07:09:15;;;;;;;0.20;0.20;;;11.50;99.90;;;;;;5065642;28;20052;-71
2021/10/14 07:11:50;;;;;;;1.63;0.47;;;11.50;99.90;;;;;;5056967;28;20480;-71
2021/10/14 07:14:16;;;;;;;0.57;0.57;;;11.50;99.90;;;;;;5058559;28;20105;-72
2021/10/14 07:16:41;;;;;;;0.25;0.25;;;11.60;99.90;;;;;;5059449;28;20099;-71
2021/10/14 07:19:07;;;;;;;0.47;0.47;;;11.60;99.90;;;;;;5061929;28;20029;-72
2021/10/14 07:21:32;;;;;;;0.60;0.45;;;11.60;99.90;;;;;;5059301;28;20033;-72
2021/10/14 07:23:57;;;;;;;0.10;0.10;;;11.60;99.90;;;;;;5055289;28;20099;-72
2021/10/14 07:26:23;;;;;;;0.00;0.00;;;11.60;99.90;;;;;;5069023;28;20033;-71
2021/10/14 07:28:48;;;;;;;0.30;0.20;;;11.70;99.90;;;;;;5063721;28;20048;-70
2021/10/14 07:31:14;;;;;;;0.20;0.20;;;11.70;99.90;;;;;;5062930;28;20480;-70
2021/10/14 07:33:39;;;;;;;0.25;0.25;;;11.70;99.90;;;;;;5057607;28;20021;-70
2021/10/14 07:36:07;;;;;;;1.00;0.95;;;11.70;99.90;;;;;;5058037;28;20027;-71
2021/10/14 07:38:32;;;;;;;1.92;0.93;;;11.80;99.90;;;;;;5060407;28;20037;-71
2021/10/14 07:40:58;;;;;;;0.10;0.10;;;11.80;99.90;;;;;;5065411;28;20506;-70
2021/10/14 07:43:23;;;;;;;0.50;0.50;;;11.80;99.90;;;;;;5063806;28;20490;-70
2021/10/14 07:45:49;;;;;;;0.20;0.20;;;11.80;99.90;;;;;;5066905;28;20028;-70
2021/10/14 07:48:15;;;;;;;0.35;0.25;;;11.80;99.90;;;;;;5065485;28;20025;-71
2021/10/14 07:50:42;;;;;;;0.35;0.35;;;11.80;99.90;;;;;;5065145;28;20028;-70
2021/10/14 07:53:12;;;;;;;0.08;0.08;;;11.80;99.90;;;;;;5064232;28;20101;-70
2021/10/14 07:55:38;;;;;;;0.20;0.20;;;11.90;99.90;;;;;;5065389;28;20104;-72
2021/10/14 07:58:03;;;;;;;1.00;0.70;;;11.90;99.90;;;;;;5065058;28;20459;-69
2021/10/14 08:00:29;;;;;;;0.13;0.13;;;11.90;99.90;;;;;;5063911;28;20040;-72
2021/10/14 08:02:54;;;;;;;0.20;0.20;;;12.00;99.90;;;;;;5062891;28;20025;-72
2021/10/14 08:05:20;;;;;;;0.35;0.35;;;12.00;99.90;;;;;;5065672;28;20055;-71
2021/10/14 08:07:46;;;;;;;2.72;1.23;;;12.00;99.90;;;;;;5067158;28;20028;-71
2021/10/14 08:10:11;;;;;;;0.52;0.52;;;12.00;99.90;;;;;;5064498;28;20027;-72
2021/10/14 08:12:37;;;;;;;0.73;0.73;;;12.00;99.90;;;;;;5060455;28;21023;-73
2021/10/14 08:15:03;;;;;;;7.32;1.02;;;12.00;99.90;;;;;;5057412;28;20108;-73
2021/10/14 08:17:29;;;;;;;0.20;0.20;;;12.00;99.90;;;;;;5062554;28;20032;-74
2021/10/14 08:19:54;;;;;;;0.63;0.57;;;12.00;99.90;;;;;;5063445;28;20368;-74
2021/10/14 08:22:19;;;;;;;1.13;0.95;;;12.00;99.90;;;;;;5063827;28;20043;-74
2021/10/14 08:24:46;;;;;;;0.10;0.10;;;12.00;99.90;;;;;;5059175;28;20140;-74
2021/10/14 08:27:12;;;;;;;1.38;0.90;;;12.10;99.90;;;;;;5057702;28;20028;-73
2021/10/14 08:29:37;;;;;;;0.13;0.13;;;12.10;99.90;;;;;;5065963;28;20035;-73
2021/10/14 08:32:03;;;;;;;0.63;0.63;;;12.20;99.90;;;;;;5066314;28;20487;-73
2021/10/14 08:34:29;;;;;;;0.20;0.20;;;12.20;99.90;;;;;;5065847;28;20123;-73
2021/10/14 08:36:55;;;;;;;1.27;0.75;;;12.20;99.90;;;;;;5060554;28;20100;-74
2021/10/14 08:39:21;;;;;;;0.40;0.40;;;12.20;99.90;;;;;;5056895;28;20485;-74
2021/10/14 08:41:47;;;;;;;0.52;0.47;;;12.20;99.90;;;;;;5061436;28;20040;-74
2021/10/14 08:44:20;;;;;;;0.93;0.90;;;12.30;99.90;;;;;;5063890;28;20028;-73
2021/10/14 08:46:47;;;;;;;0.40;0.40;;;12.30;99.90;;;;;;5060008;28;20027;-75
2021/10/14 08:49:14;;;;;;;0.50;0.50;;;12.30;99.90;;;;;;5063609;28;20513;-73
2021/10/14 08:51:40;;;;;;;0.77;0.25;;;12.30;99.90;;;;;;5063918;28;20031;-75
2021/10/14 08:54:06;;;;;;;2.20;0.95;;;12.30;99.90;;;;;;5057297;28;20020;-74
2021/10/14 08:56:33;;;;;;;1.00;0.95;;;12.30;99.90;;;;;;5057145;28;20115;-73
2021/10/14 08:58:59;;;;;;;1.58;0.45;;;12.30;99.90;;;;;;5055926;28;20039;-72
2021/10/14 09:01:25;;;;;;;1.27;1.15;;;12.30;99.90;;;;;;5061663;28;20052;-73
2021/10/14 09:03:52;;;;;;;0.50;0.43;;;12.30;99.90;;;;;;5065354;28;20379;-73
2021/10/14 09:06:18;;;;;;;0.47;0.47;;;12.30;99.90;;;;;;5057995;28;20047;-74
2021/10/14 09:08:46;;;;;;;2.15;1.27;;;12.40;99.90;;;;;;5068727;28;20028;-74
2021/10/14 09:11:23;;;;;;;0.10;0.10;;;12.50;99.90;;;;;;5058048;28;20576;-73
2021/10/14 09:13:57;;;;;;;0.90;0.60;;;12.50;99.90;;;;;;5061864;28;20028;-74
2021/10/14 09:16:22;;;;;;;0.50;0.32;;;12.60;99.90;;;;;;5049854;28;20032;-72
2021/10/14 09:18:48;;;;;;;0.22;0.22;;;12.60;99.90;;;;;;5057835;28;20017;-72
2021/10/14 09:21:28;;;;;;;0.52;0.52;;;12.60;99.90;;;;;;5074660;28;20054;-72
2021/10/14 09:23:55;;;;;;;0.22;0.22;;;12.60;99.90;;;;;;5061299;28;20547;-71
2021/10/14 09:26:32;;;;;;;1.00;0.82;;;12.60;99.90;;;;;;5054017;28;20036;-73
2021/10/14 09:29:09;;;;;;;1.08;0.50;;;12.60;99.90;;;;;;5062715;28;20121;-74
2021/10/14 09:32:01;;;;;;;0.63;0.38;;;12.70;99.90;;;;;;5066064;28;20063;-72
2021/10/14 09:34:34;;;;;;;0.20;0.20;;;12.70;99.90;;;;;;5058788;28;20025;-73
2021/10/14 09:37:05;;;;;;;0.80;0.68;;;12.80;99.90;;;;;;5057534;28;20642;-70
2021/10/14 09:39:31;;;;;;;0.30;0.30;;;12.80;99.90;;;;;;5066135;28;20032;-70
2021/10/14 09:41:58;;;;;;;0.10;0.10;;;12.90;99.90;;;;;;5058167;28;20037;-69
2021/10/14 09:44:25;;;;;;;0.05;0.05;;;12.90;99.90;;;;;;5062847;28;20063;-70
2021/10/14 09:46:53;;;;;;;0.55;0.55;;;13.00;99.90;;;;;;5062157;28;20032;-69
2021/10/14 09:49:32;;;;;;;2.45;1.45;;;13.00;99.90;;;;;;5063404;28;20112;-69
2021/10/14 09:52:02;;;;;;;0.32;0.32;;;13.00;99.90;;;;;;5055442;28;20460;-71
2021/10/14 09:54:31;;;;;;;0.10;0.10;;;13.10;99.90;;;;;;5060823;28;20016;-73
2021/10/14 09:56:57;;;;;;;0.03;0.03;;;13.10;99.90;;;;;;5053721;28;20046;-75
2021/10/14 09:59:22;;;;;;;0.32;0.10;;;13.20;99.90;;;;;;5056076;28;20082;-73
2021/10/14 10:01:50;;;;;;;0.43;0.43;;;13.20;99.90;;;;;;5044783;28;20032;-73
2021/10/14 10:04:17;;;;;;;0.52;0.52;;;13.30;99.90;;;;;;5041218;28;20671;-74
2021/10/14 10:06:46;;;;;;;0.10;0.10;;;13.20;99.90;;;;;;5045608;28;20055;-73
2021/10/14 10:09:20;;;;;;;0.32;0.32;;;13.30;99.90;;;;;;5042907;28;20049;-74
2021/10/14 10:11:51;;;;;;;0.35;0.35;;;13.30;99.90;;;;;;5046434;28;20387;-72
2021/10/14 10:14:19;;;;;;;0.10;0.08;;;13.40;99.90;;;;;;5049242;28;20021;-72
2021/10/14 10:17:08;;;;;;;0.43;0.35;;;13.40;99.90;;;;;;5051238;28;20102;-72
2021/10/14 10:19:46;;;;;;;0.13;0.13;;;13.40;99.90;;;;;;5053260;28;20101;-72
2021/10/14 10:22:35;;;;;;;0.00;0.00;;;13.40;99.90;;;;;;5051917;28;20040;-72
2021/10/14 10:25:33;;;;;;;0.55;0.55;;;13.50;99.90;;;;;;5050688;28;20034;-73
2021/10/14 10:27:59;;;;;;;0.17;0.17;;;13.50;99.90;;;;;;5050759;28;20071;-73
2021/10/14 10:30:39;;;;;;;0.70;0.35;;;13.50;99.90;;;;;;5052064;28;20508;-72
2021/10/14 10:33:07;;;;;;;0.17;0.17;;;13.60;99.90;;;;;;5050170;28;20039;-72
2021/10/14 10:35:44;;;;;;;0.50;0.50;;;13.50;99.90;;;;;;5042872;28;20111;-73
2021/10/14 10:38:21;;;;;;;0.40;0.40;;;13.60;99.90;;;;;;5050076;28;20128;-72
2021/10/14 10:40:49;;;;;;;0.13;0.13;;;13.50;99.90;;;;;;5048255;28;20037;-72
2021/10/14 10:43:22;;;;;;;0.65;0.38;;;13.50;99.90;;;;;;5050616;28;20039;-72
2021/10/14 10:45:51;;;;;;;1.58;0.40;;;13.60;99.90;;;;;;5046200;28;20444;-72
2021/10/14 10:48:37;;;;;;;0.28;0.28;;;13.60;99.90;;;;;;5036612;28;20039;-73
2021/10/14 10:51:06;;;;;;;1.38;0.30;;;13.70;99.90;;;;;;5056005;28;20311;-72
2021/10/14 10:53:37;;;;;;;0.32;0.32;;;13.70;99.90;;;;;;5054714;28;20111;-72
2021/10/14 10:56:04;;;;;;;0.00;0.00;;;13.70;99.90;;;;;;5058135;28;20560;-72
2021/10/14 10:58:45;;;;;;;0.47;0.45;;;13.70;99.90;;;;;;5056368;28;20066;-72
2021/10/14 11:01:11;;;;;;;0.35;0.35;;;13.70;99.90;;;;;;5062730;28;20032;-73
2021/10/14 11:03:37;;;;;;;0.08;0.08;;;13.70;99.90;;;;;;5059673;28;20082;-73
2021/10/14 11:06:10;;;;;;;0.00;0.00;;;13.70;99.90;;;;;;5057557;28;20464;-73
2021/10/14 11:08:36;;;;;;;0.13;0.13;;;13.60;99.90;;;;;;5053880;28;20025;-73
2021/10/14 11:11:08;;;;;;;0.40;0.40;;;13.60;99.90;;;;;;5056191;28;20066;-72
2021/10/14 11:13:36;;;;;;;0.00;0.00;;;13.60;99.90;;;;;;5054392;28;20071;-72
2021/10/14 11:16:04;;;;;;;0.00;0.00;;;13.60;99.90;;;;;;5048725;28;20095;-73
2021/10/14 11:18:30;;;;;;;0.30;0.30;;;13.60;99.90;;;;;;5060106;28;20147;-73
2021/10/14 11:21:06;;;;;;;0.00;0.00;;;13.60;99.90;;;;;;5060034;28;20111;-74
2021/10/14 11:23:43;;;;;;;0.00;0.00;;;13.60;99.90;;;;;;5060726;28;20044;-72
2021/10/14 11:26:16;;;;;;;0.00;0.00;;;13.50;99.90;;;;;;5062827;28;20035;-74
2021/10/14 11:29:01;;;;;;;0.00;0.00;;;13.60;99.90;;;;;;5062146;28;20063;-73
2021/10/14 11:31:33;;;;;;;0.00;0.00;;;13.60;99.90;;;;;;5065031;28;20394;-73
2021/10/14 11:34:14;;;;;;;0.03;0.03;;;13.60;99.90;;;;;;5063746;28;20073;-73
2021/10/14 11:36:50;;;;;;;0.10;0.10;;;13.50;99.90;;;;;;5064089;28;20028;-73
2021/10/14 11:39:17;;;;;;;0.32;0.22;;;13.50;99.90;;;;;;5057844;28;20052;-73
2021/10/14 11:41:42;;;;;;;1.23;1.13;;;13.50;99.90;;;;;;5057733;28;20059;-73
2021/10/14 11:44:10;;;;;;;0.10;0.10;;;13.60;99.90;;;;;;5055688;28;20452;-73
2021/10/14 11:46:38;;;;;;;0.08;0.08;;;13.50;99.90;;;;;;5050794;28;20210;-73
2021/10/14 11:49:10;;;;;;;0.35;0.32;;;13.50;99.90;;;;;;5057333;28;20056;-72
2021/10/14 11:51:35;;;;;;;0.00;0.00;;;13.50;99.90;;;;;;5062574;28;20040;-73
2021/10/14 11:54:10;;;;;;;0.08;0.08;;;13.50;99.90;;;;;;5061595;28;20025;-73
2021/10/14 11:56:47;;;;;;;0.45;0.45;;;13.50;99.90;;;;;;5062954;28;20071;-73
2021/10/14 11:59:15;;;;;;;0.85;0.22;;;13.50;99.90;;;;;;5058935;28;20056;-73
2021/10/14 12:01:45;;;;;;;0.47;0.30;;;13.50;99.90;;;;;;5060181;28;20035;-74
2021/10/14 12:04:15;;;;;;;0.57;0.35;;;13.50;99.90;;;;;;5067248;28;20040;-73
2021/10/14 12:06:41;;;;;;;0.15;0.15;;;13.50;99.90;;;;;;5067178;28;20029;-72
2021/10/14 12:09:07;;;;;;;2.20;0.65;;;13.50;99.90;;;;;;5064615;28;20566;-73
2021/10/14 12:11:45;;;;;;;0.40;0.40;;;13.50;99.90;;;;;;5064051;28;20119;-73
2021/10/14 12:14:11;;;;;;;0.30;0.22;;;13.50;99.90;;;;;;5065538;28;20021;-73
2021/10/14 12:16:36;;;;;;;0.80;0.63;;;13.50;99.90;;;;;;5064293;28;20400;-74
2021/10/14 12:19:17;;;;;;;0.63;0.52;;;13.50;99.90;;;;;;5067494;28;20035;-73
2021/10/14 12:21:45;;;;;;;0.13;0.13;;;13.50;99.90;;;;;;5065767;28;20581;-73
2021/10/14 12:24:26;;;;;;;0.25;0.25;;;13.50;99.90;;;;;;5064511;28;20406;-72
2021/10/14 12:26:56;;;;;;;0.20;0.20;;;13.60;99.90;;;;;;5066417;28;20250;-78
2021/10/14 12:29:30;;;;;;;0.88;0.77;;;13.70;99.90;;;;;;5066854;28;20134;-73
2021/10/14 12:32:07;;;;;;;0.22;0.22;;;13.80;99.90;;;;;;5062511;28;20098;-74
2021/10/14 12:34:59;;;;;;;0.35;0.28;;;13.90;99.90;;;;;;5062384;28;20062;-73
2021/10/14 12:37:24;;;;;;;;;;;14.10;99.90;;;;;;5067174;28;20051;-73
2021/10/14 12:40:08;;;;;;;0.20;0.20;;;14.20;99.90;;;;;;5065802;28;20125;-74
2021/10/14 12:42:47;;;;;;;0.17;0.17;;;14.40;99.90;;;;;;5056283;28;20040;-73
2021/10/14 12:45:15;;;;;;;0.65;0.65;;;14.50;99.90;;;;;;5057349;28;20116;-75
2021/10/14 12:47:50;;;;;;;1.75;0.93;;;14.60;99.90;;;;;;5053985;28;20060;-72
2021/10/14 12:53:11;;;;;;;0.75;0.57;;;14.50;99.90;;;;;;5057540;28;20035;-72
2021/10/14 12:55:56;;;;;;;0.50;0.40;;;14.40;99.90;;;;;;5052443;28;20373;-73
2021/10/14 12:58:22;;;;;;;0.65;0.60;;;14.40;99.90;;;;;;5060824;28;20031;-73
2021/10/14 13:00:59;;;;;;;0.10;0.10;;;14.30;99.90;;;;;;5059613;28;20044;-72